sensor_id;sensor_type;location;lat;lon;timestamp;P1;durP1;ratioP1;P2;durP2;ratioP2
75021;SDS011;63583;49.976;20.182;2023-04-25T00:02:10;10.85;;;6.43;;
75021;SDS011;63583;49.976;20.182;2023-04-25T00:04:36;10.52;;;6.20;;
75021;SDS011;63583;49.976;20.182;2023-04-25T00:07:03;11.90;;;6.40;;
75021;SDS011;63583;49.976;20.182;2023-04-25T00:09:29;10.60;;;6.03;;
75021;SDS011;63583;49.976;20.182;2023-04-25T00:11:55;12.00;;;6.70;;
75021;SDS011;63583;49.976;20.182;2023-04-25T00:14:20;12.20;;;7.05;;
75021;SDS011;63583;49.976;20.182;2023-04-25T00:16:46;13.52;;;7.10;;
75021;SDS011;63583;49.976;20.182;2023-04-25T00:19:13;11.70;;;5.78;;
75021;SDS011;63583;49.976;20.182;2023-04-25T00:21:39;11.48;;;6.13;;
75021;SDS011;63583;49.976;20.182;2023-04-25T00:24:06;12.45;;;6.80;;
75021;SDS011;63583;49.976;20.182;2023-04-25T00:26:33;13.77;;;6.55;;
75021;SDS011;63583;49.976;20.182;2023-04-25T00:29:00;10.05;;;6.00;;
75021;SDS011;63583;49.976;20.182;2023-04-25T00:31:26;10.57;;;5.82;;
75021;SDS011;63583;49.976;20.182;2023-04-25T00:33:52;10.82;;;5.85;;
75021;SDS011;63583;49.976;20.182;2023-04-25T00:36:18;11.05;;;5.80;;
75021;SDS011;63583;49.976;20.182;2023-04-25T00:38:44;11.43;;;6.05;;
75021;SDS011;63583;49.976;20.182;2023-04-25T00:41:09;10.43;;;6.18;;
75021;SDS011;63583;49.976;20.182;2023-04-25T00:43:36;11.23;;;6.43;;
75021;SDS011;63583;49.976;20.182;2023-04-25T00:46:02;10.82;;;6.18;;
75021;SDS011;63583;49.976;20.182;2023-04-25T00:48:28;13.50;;;6.43;;
75021;SDS011;63583;49.976;20.182;2023-04-25T00:50:55;9.95;;;5.80;;
75021;SDS011;63583;49.976;20.182;2023-04-25T00:53:24;8.63;;;4.28;;
75021;SDS011;63583;49.976;20.182;2023-04-25T00:55:51;9.55;;;3.83;;
75021;SDS011;63583;49.976;20.182;2023-04-25T00:58:17;7.65;;;3.40;;
75021;SDS011;63583;49.976;20.182;2023-04-25T01:00:45;6.03;;;2.72;;
75021;SDS011;63583;49.976;20.182;2023-04-25T01:03:12;6.03;;;2.80;;
75021;SDS011;63583;49.976;20.182;2023-04-25T01:05:41;4.25;;;2.40;;
75021;SDS011;63583;49.976;20.182;2023-04-25T01:08:08;4.90;;;2.33;;
75021;SDS011;63583;49.976;20.182;2023-04-25T01:10:33;4.55;;;2.30;;
75021;SDS011;63583;49.976;20.182;2023-04-25T01:12:59;4.30;;;2.15;;
75021;SDS011;63583;49.976;20.182;2023-04-25T01:15:25;2.88;;;1.80;;
75021;SDS011;63583;49.976;20.182;2023-04-25T01:17:50;3.67;;;1.58;;
75021;SDS011;63583;49.976;20.182;2023-04-25T01:20:16;3.88;;;1.73;;
75021;SDS011;63583;49.976;20.182;2023-04-25T01:22:42;4.30;;;1.92;;
75021;SDS011;63583;49.976;20.182;2023-04-25T01:25:08;3.92;;;2.05;;
75021;SDS011;63583;49.976;20.182;2023-04-25T01:27:35;4.32;;;2.10;;
75021;SDS011;63583;49.976;20.182;2023-04-25T01:30:02;3.15;;;1.90;;
75021;SDS011;63583;49.976;20.182;2023-04-25T01:32:28;3.30;;;1.75;;
75021;SDS011;63583;49.976;20.182;2023-04-25T01:34:56;3.63;;;2.17;;
75021;SDS011;63583;49.976;20.182;2023-04-25T01:37:22;3.60;;;2.15;;
75021;SDS011;63583;49.976;20.182;2023-04-25T01:39:48;4.05;;;2.30;;
75021;SDS011;63583;49.976;20.182;2023-04-25T01:42:15;4.25;;;2.33;;
75021;SDS011;63583;49.976;20.182;2023-04-25T01:44:41;4.70;;;2.63;;
75021;SDS011;63583;49.976;20.182;2023-04-25T01:47:06;4.80;;;2.80;;
75021;SDS011;63583;49.976;20.182;2023-04-25T01:49:32;4.35;;;2.72;;
75021;SDS011;63583;49.976;20.182;2023-04-25T01:51:58;5.15;;;3.05;;
75021;SDS011;63583;49.976;20.182;2023-04-25T01:54:23;6.93;;;3.30;;
75021;SDS011;63583;49.976;20.182;2023-04-25T01:56:50;5.93;;;3.75;;
75021;SDS011;63583;49.976;20.182;2023-04-25T01:59:16;7.90;;;3.53;;
75021;SDS011;63583;49.976;20.182;2023-04-25T02:01:42;9.65;;;3.67;;
75021;SDS011;63583;49.976;20.182;2023-04-25T02:04:07;5.72;;;3.05;;
75021;SDS011;63583;49.976;20.182;2023-04-25T02:06:33;5.53;;;3.13;;
75021;SDS011;63583;49.976;20.182;2023-04-25T02:08:58;4.93;;;3.08;;
75021;SDS011;63583;49.976;20.182;2023-04-25T02:11:24;6.45;;;3.03;;
75021;SDS011;63583;49.976;20.182;2023-04-25T02:13:50;6.43;;;3.17;;
75021;SDS011;63583;49.976;20.182;2023-04-25T02:16:15;5.30;;;3.20;;
75021;SDS011;63583;49.976;20.182;2023-04-25T02:18:41;6.20;;;3.88;;
75021;SDS011;63583;49.976;20.182;2023-04-25T02:21:07;5.93;;;3.00;;
75021;SDS011;63583;49.976;20.182;2023-04-25T02:23:33;5.78;;;3.10;;
75021;SDS011;63583;49.976;20.182;2023-04-25T02:25:59;4.63;;;2.95;;
75021;SDS011;63583;49.976;20.182;2023-04-25T02:28:24;5.75;;;3.13;;
75021;SDS011;63583;49.976;20.182;2023-04-25T02:30:51;5.90;;;3.30;;
75021;SDS011;63583;49.976;20.182;2023-04-25T02:33:17;7.97;;;3.50;;
75021;SDS011;63583;49.976;20.182;2023-04-25T02:35:43;6.70;;;3.35;;
75021;SDS011;63583;49.976;20.182;2023-04-25T02:38:08;7.88;;;3.03;;
75021;SDS011;63583;49.976;20.182;2023-04-25T02:40:34;5.68;;;2.58;;
75021;SDS011;63583;49.976;20.182;2023-04-25T02:42:59;5.63;;;2.92;;
75021;SDS011;63583;49.976;20.182;2023-04-25T02:45:25;4.40;;;3.15;;
75021;SDS011;63583;49.976;20.182;2023-04-25T02:47:51;6.57;;;3.33;;
75021;SDS011;63583;49.976;20.182;2023-04-25T02:50:16;4.90;;;3.08;;
75021;SDS011;63583;49.976;20.182;2023-04-25T02:52:43;5.18;;;2.95;;
75021;SDS011;63583;49.976;20.182;2023-04-25T02:55:12;5.70;;;3.10;;
75021;SDS011;63583;49.976;20.182;2023-04-25T02:57:38;4.38;;;2.55;;
75021;SDS011;63583;49.976;20.182;2023-04-25T03:00:04;6.07;;;3.13;;
75021;SDS011;63583;49.976;20.182;2023-04-25T03:02:30;5.75;;;2.83;;
75021;SDS011;63583;49.976;20.182;2023-04-25T03:04:56;6.15;;;3.17;;
75021;SDS011;63583;49.976;20.182;2023-04-25T03:07:21;5.65;;;3.00;;
75021;SDS011;63583;49.976;20.182;2023-04-25T03:09:47;6.68;;;3.55;;
75021;SDS011;63583;49.976;20.182;2023-04-25T03:12:13;7.28;;;3.17;;
75021;SDS011;63583;49.976;20.182;2023-04-25T03:14:38;5.95;;;3.38;;
75021;SDS011;63583;49.976;20.182;2023-04-25T03:17:04;6.80;;;3.22;;
75021;SDS011;63583;49.976;20.182;2023-04-25T03:19:30;4.53;;;2.80;;
75021;SDS011;63583;49.976;20.182;2023-04-25T03:21:55;5.78;;;3.38;;
75021;SDS011;63583;49.976;20.182;2023-04-25T03:24:21;5.53;;;3.42;;
75021;SDS011;63583;49.976;20.182;2023-04-25T03:26:47;7.45;;;3.28;;
75021;SDS011;63583;49.976;20.182;2023-04-25T03:29:12;6.88;;;3.78;;
75021;SDS011;63583;49.976;20.182;2023-04-25T03:31:38;5.57;;;3.53;;
75021;SDS011;63583;49.976;20.182;2023-04-25T03:34:04;5.07;;;2.70;;
75021;SDS011;63583;49.976;20.182;2023-04-25T03:36:29;8.65;;;3.95;;
75021;SDS011;63583;49.976;20.182;2023-04-25T03:38:55;7.75;;;3.75;;
75021;SDS011;63583;49.976;20.182;2023-04-25T03:41:20;6.28;;;3.72;;
75021;SDS011;63583;49.976;20.182;2023-04-25T03:43:46;7.20;;;3.78;;
75021;SDS011;63583;49.976;20.182;2023-04-25T03:46:11;6.32;;;3.97;;
75021;SDS011;63583;49.976;20.182;2023-04-25T03:48:37;6.32;;;3.78;;
75021;SDS011;63583;49.976;20.182;2023-04-25T03:51:03;7.93;;;3.80;;
75021;SDS011;63583;49.976;20.182;2023-04-25T03:53:28;7.60;;;4.22;;
75021;SDS011;63583;49.976;20.182;2023-04-25T03:55:54;7.30;;;3.47;;
75021;SDS011;63583;49.976;20.182;2023-04-25T03:58:20;9.35;;;4.50;;
75021;SDS011;63583;49.976;20.182;2023-04-25T04:00:45;9.77;;;4.57;;
75021;SDS011;63583;49.976;20.182;2023-04-25T04:03:11;8.82;;;4.70;;
75021;SDS011;63583;49.976;20.182;2023-04-25T04:05:36;8.77;;;4.57;;
75021;SDS011;63583;49.976;20.182;2023-04-25T04:10:31;7.47;;;4.03;;
75021;SDS011;63583;49.976;20.182;2023-04-25T04:12:57;9.32;;;4.72;;
75021;SDS011;63583;49.976;20.182;2023-04-25T04:15:22;7.28;;;4.38;;
75021;SDS011;63583;49.976;20.182;2023-04-25T04:17:48;8.05;;;4.22;;
75021;SDS011;63583;49.976;20.182;2023-04-25T04:20:14;8.13;;;4.18;;
75021;SDS011;63583;49.976;20.182;2023-04-25T04:22:39;8.30;;;4.40;;
75021;SDS011;63583;49.976;20.182;2023-04-25T04:25:05;9.05;;;4.80;;
75021;SDS011;63583;49.976;20.182;2023-04-25T04:27:32;10.23;;;4.38;;
75021;SDS011;63583;49.976;20.182;2023-04-25T04:29:58;13.45;;;5.93;;
75021;SDS011;63583;49.976;20.182;2023-04-25T04:32:24;12.10;;;6.38;;
75021;SDS011;63583;49.976;20.182;2023-04-25T04:34:50;10.70;;;6.50;;
75021;SDS011;63583;49.976;20.182;2023-04-25T04:37:17;11.00;;;5.22;;
75021;SDS011;63583;49.976;20.182;2023-04-25T04:39:43;10.95;;;5.50;;
75021;SDS011;63583;49.976;20.182;2023-04-25T04:42:09;11.00;;;5.72;;
75021;SDS011;63583;49.976;20.182;2023-04-25T04:44:36;10.35;;;5.07;;
75021;SDS011;63583;49.976;20.182;2023-04-25T04:47:04;10.15;;;5.00;;
75021;SDS011;63583;49.976;20.182;2023-04-25T04:49:31;9.77;;;5.03;;
75021;SDS011;63583;49.976;20.182;2023-04-25T04:51:57;8.38;;;5.25;;
75021;SDS011;63583;49.976;20.182;2023-04-25T04:54:25;12.15;;;5.82;;
75021;SDS011;63583;49.976;20.182;2023-04-25T04:56:50;9.70;;;4.90;;
75021;SDS011;63583;49.976;20.182;2023-04-25T04:59:17;10.63;;;5.30;;
75021;SDS011;63583;49.976;20.182;2023-04-25T05:01:43;12.52;;;6.00;;
75021;SDS011;63583;49.976;20.182;2023-04-25T05:04:08;12.68;;;6.00;;
75021;SDS011;63583;49.976;20.182;2023-04-25T05:06:34;8.52;;;5.30;;
75021;SDS011;63583;49.976;20.182;2023-04-25T05:08:59;11.57;;;5.78;;
75021;SDS011;63583;49.976;20.182;2023-04-25T05:11:25;11.23;;;5.25;;
75021;SDS011;63583;49.976;20.182;2023-04-25T05:13:51;12.50;;;6.07;;
75021;SDS011;63583;49.976;20.182;2023-04-25T05:16:18;11.43;;;5.53;;
75021;SDS011;63583;49.976;20.182;2023-04-25T05:18:44;11.57;;;5.80;;
75021;SDS011;63583;49.976;20.182;2023-04-25T05:21:09;13.77;;;6.72;;
75021;SDS011;63583;49.976;20.182;2023-04-25T05:23:35;15.60;;;7.72;;
75021;SDS011;63583;49.976;20.182;2023-04-25T05:26:01;15.77;;;7.95;;
75021;SDS011;63583;49.976;20.182;2023-04-25T05:28:26;13.55;;;7.30;;
75021;SDS011;63583;49.976;20.182;2023-04-25T05:30:52;13.85;;;7.47;;
75021;SDS011;63583;49.976;20.182;2023-04-25T05:33:18;12.55;;;6.85;;
75021;SDS011;63583;49.976;20.182;2023-04-25T05:35:44;14.60;;;6.97;;
75021;SDS011;63583;49.976;20.182;2023-04-25T05:38:10;16.90;;;7.95;;
75021;SDS011;63583;49.976;20.182;2023-04-25T05:40:36;15.85;;;7.60;;
75021;SDS011;63583;49.976;20.182;2023-04-25T05:43:01;13.57;;;7.50;;
75021;SDS011;63583;49.976;20.182;2023-04-25T05:45:27;13.25;;;7.20;;
75021;SDS011;63583;49.976;20.182;2023-04-25T05:47:52;12.52;;;6.28;;
75021;SDS011;63583;49.976;20.182;2023-04-25T05:50:18;12.15;;;6.45;;
75021;SDS011;63583;49.976;20.182;2023-04-25T05:52:44;10.25;;;6.05;;
75021;SDS011;63583;49.976;20.182;2023-04-25T05:55:09;11.43;;;5.55;;
75021;SDS011;63583;49.976;20.182;2023-04-25T05:57:35;11.38;;;5.78;;
75021;SDS011;63583;49.976;20.182;2023-04-25T06:00:01;7.22;;;3.70;;
75021;SDS011;63583;49.976;20.182;2023-04-25T06:02:26;10.15;;;5.40;;
75021;SDS011;63583;49.976;20.182;2023-04-25T06:04:52;11.60;;;5.30;;
75021;SDS011;63583;49.976;20.182;2023-04-25T06:07:18;8.57;;;4.28;;
75021;SDS011;63583;49.976;20.182;2023-04-25T06:09:45;6.60;;;3.70;;
75021;SDS011;63583;49.976;20.182;2023-04-25T06:12:11;6.85;;;3.35;;
75021;SDS011;63583;49.976;20.182;2023-04-25T06:14:36;7.00;;;3.08;;
75021;SDS011;63583;49.976;20.182;2023-04-25T06:17:02;8.85;;;3.60;;
75021;SDS011;63583;49.976;20.182;2023-04-25T06:19:34;8.88;;;2.72;;
75021;SDS011;63583;49.976;20.182;2023-04-25T06:22:00;7.82;;;2.85;;
75021;SDS011;63583;49.976;20.182;2023-04-25T06:24:26;4.90;;;2.70;;
75021;SDS011;63583;49.976;20.182;2023-04-25T06:26:51;5.45;;;2.80;;
75021;SDS011;63583;49.976;20.182;2023-04-25T06:29:18;6.50;;;3.10;;
75021;SDS011;63583;49.976;20.182;2023-04-25T06:31:43;6.78;;;2.60;;
75021;SDS011;63583;49.976;20.182;2023-04-25T06:34:09;4.70;;;2.58;;
75021;SDS011;63583;49.976;20.182;2023-04-25T06:36:35;5.25;;;2.63;;
75021;SDS011;63583;49.976;20.182;2023-04-25T06:39:01;4.60;;;2.53;;
75021;SDS011;63583;49.976;20.182;2023-04-25T06:41:26;4.72;;;2.50;;
75021;SDS011;63583;49.976;20.182;2023-04-25T06:43:52;5.13;;;2.42;;
75021;SDS011;63583;49.976;20.182;2023-04-25T06:46:17;4.75;;;2.63;;
75021;SDS011;63583;49.976;20.182;2023-04-25T06:48:43;6.07;;;2.55;;
75021;SDS011;63583;49.976;20.182;2023-04-25T06:51:09;5.30;;;2.22;;
75021;SDS011;63583;49.976;20.182;2023-04-25T06:53:34;4.82;;;2.72;;
75021;SDS011;63583;49.976;20.182;2023-04-25T06:56:00;4.65;;;2.00;;
75021;SDS011;63583;49.976;20.182;2023-04-25T06:58:26;4.05;;;2.10;;
75021;SDS011;63583;49.976;20.182;2023-04-25T07:00:51;4.05;;;1.77;;
75021;SDS011;63583;49.976;20.182;2023-04-25T07:03:17;3.47;;;1.80;;
75021;SDS011;63583;49.976;20.182;2023-04-25T07:05:43;2.92;;;1.77;;
75021;SDS011;63583;49.976;20.182;2023-04-25T07:08:08;3.55;;;1.65;;
75021;SDS011;63583;49.976;20.182;2023-04-25T07:10:34;3.92;;;2.15;;
75021;SDS011;63583;49.976;20.182;2023-04-25T07:13:00;4.70;;;2.20;;
75021;SDS011;63583;49.976;20.182;2023-04-25T07:15:25;3.90;;;2.28;;
75021;SDS011;63583;49.976;20.182;2023-04-25T07:17:51;4.05;;;2.25;;
75021;SDS011;63583;49.976;20.182;2023-04-25T07:20:17;4.35;;;2.42;;
75021;SDS011;63583;49.976;20.182;2023-04-25T07:22:42;6.53;;;2.55;;
75021;SDS011;63583;49.976;20.182;2023-04-25T07:25:09;5.85;;;3.00;;
75021;SDS011;63583;49.976;20.182;2023-04-25T07:27:37;6.53;;;2.70;;
75021;SDS011;63583;49.976;20.182;2023-04-25T07:30:04;6.95;;;3.05;;
75021;SDS011;63583;49.976;20.182;2023-04-25T07:32:30;5.03;;;2.22;;
75021;SDS011;63583;49.976;20.182;2023-04-25T07:34:56;6.03;;;3.20;;
75021;SDS011;63583;49.976;20.182;2023-04-25T07:37:22;5.60;;;2.83;;
75021;SDS011;63583;49.976;20.182;2023-04-25T07:39:47;5.50;;;3.03;;
75021;SDS011;63583;49.976;20.182;2023-04-25T07:42:13;6.13;;;3.58;;
75021;SDS011;63583;49.976;20.182;2023-04-25T07:44:39;5.70;;;3.47;;
75021;SDS011;63583;49.976;20.182;2023-04-25T07:47:05;7.45;;;3.55;;
75021;SDS011;63583;49.976;20.182;2023-04-25T07:49:34;6.57;;;2.95;;
75021;SDS011;63583;49.976;20.182;2023-04-25T07:52:01;6.10;;;3.10;;
75021;SDS011;63583;49.976;20.182;2023-04-25T07:54:28;5.78;;;3.53;;
75021;SDS011;63583;49.976;20.182;2023-04-25T07:56:54;6.72;;;3.58;;
75021;SDS011;63583;49.976;20.182;2023-04-25T07:59:19;5.40;;;2.60;;
75021;SDS011;63583;49.976;20.182;2023-04-25T08:01:45;3.75;;;2.38;;
75021;SDS011;63583;49.976;20.182;2023-04-25T08:04:11;4.35;;;2.40;;
75021;SDS011;63583;49.976;20.182;2023-04-25T08:06:36;5.57;;;2.60;;
75021;SDS011;63583;49.976;20.182;2023-04-25T08:09:02;4.93;;;2.75;;
75021;SDS011;63583;49.976;20.182;2023-04-25T08:11:28;5.60;;;2.65;;
75021;SDS011;63583;49.976;20.182;2023-04-25T08:13:54;4.25;;;2.47;;
75021;SDS011;63583;49.976;20.182;2023-04-25T08:16:19;4.50;;;2.30;;
75021;SDS011;63583;49.976;20.182;2023-04-25T08:18:45;4.20;;;2.13;;
75021;SDS011;63583;49.976;20.182;2023-04-25T08:21:11;3.30;;;1.92;;
75021;SDS011;63583;49.976;20.182;2023-04-25T08:23:38;3.10;;;1.98;;
75021;SDS011;63583;49.976;20.182;2023-04-25T08:26:04;6.18;;;2.08;;
75021;SDS011;63583;49.976;20.182;2023-04-25T08:28:30;5.43;;;2.00;;
75021;SDS011;63583;49.976;20.182;2023-04-25T08:30:56;4.35;;;2.00;;
75021;SDS011;63583;49.976;20.182;2023-04-25T08:33:22;3.17;;;1.90;;
75021;SDS011;63583;49.976;20.182;2023-04-25T08:35:48;2.83;;;1.52;;
75021;SDS011;63583;49.976;20.182;2023-04-25T08:38:14;3.13;;;1.67;;
75021;SDS011;63583;49.976;20.182;2023-04-25T08:40:39;3.47;;;2.20;;
75021;SDS011;63583;49.976;20.182;2023-04-25T08:43:06;5.10;;;1.98;;
75021;SDS011;63583;49.976;20.182;2023-04-25T08:45:39;4.75;;;2.03;;
75021;SDS011;63583;49.976;20.182;2023-04-25T08:48:11;3.00;;;1.65;;
75021;SDS011;63583;49.976;20.182;2023-04-25T08:50:50;3.95;;;2.00;;
75021;SDS011;63583;49.976;20.182;2023-04-25T08:53:20;3.85;;;1.70;;
75021;SDS011;63583;49.976;20.182;2023-04-25T08:55:48;3.67;;;1.80;;
75021;SDS011;63583;49.976;20.182;2023-04-25T08:58:15;4.55;;;2.35;;
75021;SDS011;63583;49.976;20.182;2023-04-25T09:00:42;4.28;;;2.15;;
75021;SDS011;63583;49.976;20.182;2023-04-25T09:03:08;3.47;;;2.00;;
75021;SDS011;63583;49.976;20.182;2023-04-25T09:05:35;4.20;;;2.10;;
75021;SDS011;63583;49.976;20.182;2023-04-25T09:08:02;5.72;;;2.25;;
75021;SDS011;63583;49.976;20.182;2023-04-25T09:10:27;5.88;;;2.55;;
75021;SDS011;63583;49.976;20.182;2023-04-25T09:13:06;4.45;;;2.42;;
75021;SDS011;63583;49.976;20.182;2023-04-25T09:20:44;3.97;;;2.10;;
75021;SDS011;63583;49.976;20.182;2023-04-25T09:23:10;3.70;;;2.22;;
75021;SDS011;63583;49.976;20.182;2023-04-25T09:25:35;4.65;;;2.10;;
75021;SDS011;63583;49.976;20.182;2023-04-25T09:28:04;4.20;;;2.28;;
75021;SDS011;63583;49.976;20.182;2023-04-25T09:30:31;3.47;;;2.22;;
75021;SDS011;63583;49.976;20.182;2023-04-25T09:33:06;3.75;;;2.47;;
75021;SDS011;63583;49.976;20.182;2023-04-25T09:35:39;5.38;;;2.92;;
75021;SDS011;63583;49.976;20.182;2023-04-25T09:38:07;7.40;;;2.60;;
75021;SDS011;63583;49.976;20.182;2023-04-25T09:40:43;4.63;;;2.67;;
75021;SDS011;63583;49.976;20.182;2023-04-25T09:43:20;6.72;;;3.00;;
75021;SDS011;63583;49.976;20.182;2023-04-25T09:45:46;6.40;;;3.10;;
75021;SDS011;63583;49.976;20.182;2023-04-25T09:48:19;6.28;;;2.75;;
75021;SDS011;63583;49.976;20.182;2023-04-25T09:51:19;5.10;;;2.85;;
75021;SDS011;63583;49.976;20.182;2023-04-25T09:53:44;6.35;;;2.75;;
75021;SDS011;63583;49.976;20.182;2023-04-25T09:56:12;5.78;;;3.08;;
75021;SDS011;63583;49.976;20.182;2023-04-25T09:58:39;5.38;;;3.40;;
75021;SDS011;63583;49.976;20.182;2023-04-25T10:01:06;4.97;;;2.67;;
75021;SDS011;63583;49.976;20.182;2023-04-25T10:03:34;5.63;;;3.10;;
75021;SDS011;63583;49.976;20.182;2023-04-25T10:06:01;4.82;;;2.53;;
75021;SDS011;63583;49.976;20.182;2023-04-25T10:08:31;4.55;;;2.88;;
75021;SDS011;63583;49.976;20.182;2023-04-25T10:11:02;6.57;;;3.50;;
75021;SDS011;63583;49.976;20.182;2023-04-25T10:13:30;4.75;;;2.85;;
75021;SDS011;63583;49.976;20.182;2023-04-25T10:15:57;6.78;;;3.20;;
75021;SDS011;63583;49.976;20.182;2023-04-25T10:18:24;5.60;;;3.63;;
75021;SDS011;63583;49.976;20.182;2023-04-25T10:20:52;6.25;;;3.60;;
75021;SDS011;63583;49.976;20.182;2023-04-25T10:23:22;6.70;;;3.53;;
75021;SDS011;63583;49.976;20.182;2023-04-25T10:25:49;6.30;;;3.40;;
75021;SDS011;63583;49.976;20.182;2023-04-25T10:28:16;5.18;;;3.13;;
75021;SDS011;63583;49.976;20.182;2023-04-25T10:33:33;7.82;;;3.38;;
75021;SDS011;63583;49.976;20.182;2023-04-25T10:36:13;6.13;;;3.33;;
75021;SDS011;63583;49.976;20.182;2023-04-25T10:38:42;7.38;;;3.58;;
75021;SDS011;63583;49.976;20.182;2023-04-25T10:41:08;8.43;;;3.38;;
75021;SDS011;63583;49.976;20.182;2023-04-25T10:49:01;8.15;;;3.70;;
75021;SDS011;63583;49.976;20.182;2023-04-25T10:51:34;5.53;;;3.58;;
75021;SDS011;63583;49.976;20.182;2023-04-25T10:54:05;5.75;;;3.30;;
75021;SDS011;63583;49.976;20.182;2023-04-25T10:59:08;5.35;;;3.08;;
75021;SDS011;63583;49.976;20.182;2023-04-25T11:04:05;5.60;;;3.08;;
75021;SDS011;63583;49.976;20.182;2023-04-25T11:06:35;5.70;;;2.50;;
75021;SDS011;63583;49.976;20.182;2023-04-25T11:09:10;5.47;;;2.30;;
75021;SDS011;63583;49.976;20.182;2023-04-25T11:11:39;3.00;;;1.63;;
75021;SDS011;63583;49.976;20.182;2023-04-25T11:14:05;3.95;;;2.28;;
75021;SDS011;63583;49.976;20.182;2023-04-25T11:16:31;3.55;;;2.17;;
75021;SDS011;63583;49.976;20.182;2023-04-25T11:18:57;4.85;;;2.28;;
75021;SDS011;63583;49.976;20.182;2023-04-25T11:21:25;4.28;;;2.33;;
75021;SDS011;63583;49.976;20.182;2023-04-25T11:23:53;3.70;;;2.53;;
75021;SDS011;63583;49.976;20.182;2023-04-25T11:26:19;4.07;;;2.67;;
75021;SDS011;63583;49.976;20.182;2023-04-25T11:28:46;3.72;;;2.17;;
75021;SDS011;63583;49.976;20.182;2023-04-25T11:31:12;4.88;;;2.22;;
75021;SDS011;63583;49.976;20.182;2023-04-25T11:33:38;4.65;;;2.40;;
75021;SDS011;63583;49.976;20.182;2023-04-25T11:36:05;4.80;;;2.60;;
75021;SDS011;63583;49.976;20.182;2023-04-25T11:38:32;4.25;;;2.20;;
75021;SDS011;63583;49.976;20.182;2023-04-25T11:40:57;4.47;;;2.13;;
75021;SDS011;63583;49.976;20.182;2023-04-25T11:43:25;4.20;;;2.30;;
75021;SDS011;63583;49.976;20.182;2023-04-25T11:45:50;3.90;;;2.20;;
75021;SDS011;63583;49.976;20.182;2023-04-25T11:48:18;3.22;;;2.08;;
75021;SDS011;63583;49.976;20.182;2023-04-25T11:50:44;3.70;;;2.20;;
75021;SDS011;63583;49.976;20.182;2023-04-25T11:53:10;4.50;;;2.53;;
75021;SDS011;63583;49.976;20.182;2023-04-25T11:55:36;5.32;;;2.78;;
75021;SDS011;63583;49.976;20.182;2023-04-25T11:58:03;5.38;;;2.88;;
75021;SDS011;63583;49.976;20.182;2023-04-25T12:00:29;4.43;;;2.15;;
75021;SDS011;63583;49.976;20.182;2023-04-25T12:02:56;3.33;;;2.13;;
75021;SDS011;63583;49.976;20.182;2023-04-25T12:05:28;5.97;;;2.58;;
75021;SDS011;63583;49.976;20.182;2023-04-25T12:07:56;3.33;;;2.30;;
75021;SDS011;63583;49.976;20.182;2023-04-25T12:10:21;4.00;;;2.42;;
75021;SDS011;63583;49.976;20.182;2023-04-25T12:12:50;3.83;;;2.38;;
75021;SDS011;63583;49.976;20.182;2023-04-25T12:15:16;4.38;;;2.63;;
75021;SDS011;63583;49.976;20.182;2023-04-25T12:17:47;5.05;;;2.50;;
75021;SDS011;63583;49.976;20.182;2023-04-25T12:20:15;4.93;;;2.50;;
75021;SDS011;63583;49.976;20.182;2023-04-25T12:22:43;5.45;;;3.10;;
75021;SDS011;63583;49.976;20.182;2023-04-25T12:28:14;5.43;;;3.03;;
75021;SDS011;63583;49.976;20.182;2023-04-25T12:30:54;4.47;;;2.50;;
75021;SDS011;63583;49.976;20.182;2023-04-25T12:33:24;6.10;;;2.92;;
75021;SDS011;63583;49.976;20.182;2023-04-25T12:35:52;5.30;;;3.13;;
75021;SDS011;63583;49.976;20.182;2023-04-25T12:38:27;4.63;;;2.90;;
75021;SDS011;63583;49.976;20.182;2023-04-25T12:40:55;4.88;;;2.90;;
75021;SDS011;63583;49.976;20.182;2023-04-25T12:43:21;7.10;;;3.70;;
75021;SDS011;63583;49.976;20.182;2023-04-25T12:45:51;5.32;;;3.20;;
75021;SDS011;63583;49.976;20.182;2023-04-25T12:48:18;5.07;;;3.17;;
75021;SDS011;63583;49.976;20.182;2023-04-25T12:50:44;5.10;;;3.20;;
75021;SDS011;63583;49.976;20.182;2023-04-25T12:53:12;4.70;;;2.67;;
75021;SDS011;63583;49.976;20.182;2023-04-25T12:55:38;4.70;;;3.05;;
75021;SDS011;63583;49.976;20.182;2023-04-25T12:58:04;5.68;;;2.80;;
75021;SDS011;63583;49.976;20.182;2023-04-25T13:00:30;5.38;;;2.78;;
75021;SDS011;63583;49.976;20.182;2023-04-25T13:02:56;4.03;;;3.03;;
75021;SDS011;63583;49.976;20.182;2023-04-25T13:05:21;6.30;;;3.50;;
75021;SDS011;63583;49.976;20.182;2023-04-25T13:07:47;6.55;;;3.65;;
75021;SDS011;63583;49.976;20.182;2023-04-25T13:10:13;6.80;;;3.42;;
75021;SDS011;63583;49.976;20.182;2023-04-25T13:12:39;6.35;;;3.47;;
75021;SDS011;63583;49.976;20.182;2023-04-25T13:15:04;6.50;;;3.65;;
75021;SDS011;63583;49.976;20.182;2023-04-25T13:17:32;4.68;;;2.85;;
75021;SDS011;63583;49.976;20.182;2023-04-25T13:19:57;3.88;;;2.53;;
75021;SDS011;63583;49.976;20.182;2023-04-25T13:22:23;4.38;;;2.78;;
75021;SDS011;63583;49.976;20.182;2023-04-25T13:24:48;4.50;;;2.70;;
75021;SDS011;63583;49.976;20.182;2023-04-25T13:27:14;5.95;;;3.78;;
75021;SDS011;63583;49.976;20.182;2023-04-25T13:29:40;5.68;;;3.42;;
75021;SDS011;63583;49.976;20.182;2023-04-25T13:32:06;5.65;;;3.70;;
75021;SDS011;63583;49.976;20.182;2023-04-25T13:34:32;6.15;;;3.78;;
75021;SDS011;63583;49.976;20.182;2023-04-25T13:36:58;7.57;;;3.45;;
75021;SDS011;63583;49.976;20.182;2023-04-25T13:39:23;6.85;;;3.50;;
75021;SDS011;63583;49.976;20.182;2023-04-25T13:41:49;6.88;;;4.05;;
75021;SDS011;63583;49.976;20.182;2023-04-25T13:44:15;7.85;;;3.97;;
75021;SDS011;63583;49.976;20.182;2023-04-25T13:46:41;5.03;;;3.22;;
75021;SDS011;63583;49.976;20.182;2023-04-25T13:49:07;6.95;;;4.55;;
75021;SDS011;63583;49.976;20.182;2023-04-25T13:51:32;7.82;;;4.50;;
75021;SDS011;63583;49.976;20.182;2023-04-25T13:53:58;8.50;;;4.60;;
75021;SDS011;63583;49.976;20.182;2023-04-25T13:56:24;4.68;;;3.38;;
75021;SDS011;63583;49.976;20.182;2023-04-25T13:58:50;6.03;;;3.15;;
75021;SDS011;63583;49.976;20.182;2023-04-25T14:01:17;5.72;;;3.30;;
75021;SDS011;63583;49.976;20.182;2023-04-25T14:03:42;6.75;;;3.13;;
75021;SDS011;63583;49.976;20.182;2023-04-25T14:06:08;5.38;;;3.22;;
75021;SDS011;63583;49.976;20.182;2023-04-25T14:08:34;6.22;;;3.15;;
75021;SDS011;63583;49.976;20.182;2023-04-25T14:11:00;4.57;;;2.92;;
75021;SDS011;63583;49.976;20.182;2023-04-25T14:13:26;6.15;;;3.80;;
75021;SDS011;63583;49.976;20.182;2023-04-25T14:15:51;6.22;;;3.13;;
75021;SDS011;63583;49.976;20.182;2023-04-25T14:18:17;5.13;;;3.30;;
75021;SDS011;63583;49.976;20.182;2023-04-25T14:20:44;7.18;;;2.95;;
75021;SDS011;63583;49.976;20.182;2023-04-25T14:23:10;4.55;;;3.03;;
75021;SDS011;63583;49.976;20.182;2023-04-25T14:25:36;6.30;;;3.50;;
75021;SDS011;63583;49.976;20.182;2023-04-25T14:28:02;5.95;;;3.38;;
75021;SDS011;63583;49.976;20.182;2023-04-25T14:30:28;5.72;;;3.47;;
75021;SDS011;63583;49.976;20.182;2023-04-25T14:32:53;6.97;;;3.47;;
75021;SDS011;63583;49.976;20.182;2023-04-25T14:35:19;7.00;;;3.40;;
75021;SDS011;63583;49.976;20.182;2023-04-25T14:37:45;7.05;;;3.88;;
75021;SDS011;63583;49.976;20.182;2023-04-25T14:40:11;5.80;;;3.40;;
75021;SDS011;63583;49.976;20.182;2023-04-25T14:42:41;6.25;;;3.63;;
75021;SDS011;63583;49.976;20.182;2023-04-25T14:45:07;5.28;;;3.40;;
75021;SDS011;63583;49.976;20.182;2023-04-25T14:47:36;5.88;;;3.75;;
75021;SDS011;63583;49.976;20.182;2023-04-25T14:52:29;6.72;;;2.97;;
75021;SDS011;63583;49.976;20.182;2023-04-25T14:54:56;6.00;;;3.67;;
75021;SDS011;63583;49.976;20.182;2023-04-25T14:57:21;6.25;;;3.83;;